San Clemente, California
Current Conditions -  °F | °C
As of 3:56 PM on Thursday 18 Dec 2014 (Local Time) from KNXF Reporting Station
Haze Haze  
Wind Chill: 61°   Ceiling: 8000
Heat Index: 61°   Visibility: 6mi
Dew Point: 50°   Wind: 6mph
Humidity: 67%   Direction: 260°W
Pressure: 30.15"   Gusts: NA
Location:  33.43°N, 117.6°W
Report Text: KNXF 182356Z AUTO 26005KT 6SM HZ FEW065 OVC080 16/10 A3015 RMK AO2 SLP296 T01610100 10172 20150 55001 $
Loading
Personal Weather Stations






























Interactive Weather Map New forecast layout! Learn more

10-Day Weather Forecast

Advertisements
Track Severe Weather on mobile